Terminal Aerodrome Forecast
Issued by NWS

Home | Current Version | Previous Version | Text Only | Print | Product List | Glossary On
Versions: 1 2 3 4 5 6 7 8 9 10 11 12 13
000
FTUS45 KRIW 031100
TAFWRL
TAF
KWRL 031128Z 0312/0412 32015G25KT 6SM -SN SCT030 OVC050
     FM031400 32013KT 5SM -SN OVC030
     FM031900 32010KT P6SM -SN BKN050
     FM040200 VRB04KT P6SM -SN SCT050 BKN080=

USA.gov is the U.S. government's official web portal to all federal, state and local government web resources and services.